Ana Sayfa
METAR-TAF:

METAR-TAF

Havaalanları :

Kazvin, İran

Enlem: 36-15N, Boylam: 050-00E, yükseklik: 1278 m

Güncel hava durumu gözlemi

Rapor saat 20:00 UTC de 49 dakika önce yapıldı.
Sakin rüzgar
Sıcaklık 20°C
Nem 46%
Basınç 1017 hPa
Görüş mesafesi 10 km veya daha fazla
1500 m altında bulut yok ve kümülonimbus yok

METAR: OIIK 242000Z 00000KT CAVOK 20/08 Q1017

Saat: 01:19 (20:49 UTC)


TAF: eksik

4.000'den fazla havaalanı için hava durumu gözlemleri ve tahminleri (METAR ve TAF raporları).

Kullanılabilir istasyonlar harita üzerinde sarı ve kırmızı noktalarla gösterilir.

İstasyonun adını görmek için fareyi noktanın üzerinde gezdirin.

Sonrasında hava gözlem ve tahminlerini görmek için tıklayın.

Haritayı değiştirmek için: yaklaştırmak için siyah artı işaretli yeşil düğmeye ve uzaklaştırmak için de eksi işaretli düğmeye hızla tıklayın; bitişik haritalar için yeşil okları kullanın.


METAR-TAF: